Time;durP1;ratioP1;P1;durP2;ratioP2;P2;SDS_P1;SDS_P2;PMS_P1;PMS_P2;Temp;Humidity;BMP_temperature;BMP_pressure;BME280_temperature;BME280_humidity;BME280_pressure;Samples;Min_cycle;Max_cycle;Signal;HPM_P1;HPM_P2
2022/12/21 00:01:11;;;;;;;79.30;29.15;;;5.20;99.90;;;;;;6051308;23;20333;-86
2022/12/21 00:03:38;;;;;;;85.97;28.83;;;5.20;99.90;;;;;;6099041;23;20011;-87
2022/12/21 00:06:05;;;;;;;85.50;29.52;;;5.10;99.90;;;;;;6075838;23;20065;-86
2022/12/21 00:08:39;;;;;;;75.22;26.55;;;5.10;99.90;;;;;;6051972;23;20149;-86
2022/12/21 00:11:05;;;;;;;81.68;26.75;;;5.10;99.90;;;;;;6051625;23;20021;-87
2022/12/21 00:13:32;;;;;;;77.50;26.92;;;5.00;99.90;;;;;;6051693;23;20006;-87
2022/12/21 00:16:00;;;;;;;82.45;27.25;;;4.90;99.90;;;;;;6052164;23;20010;-87
2022/12/21 00:18:26;;;;;;;68.55;25.98;;;4.90;99.90;;;;;;6050809;23;20305;-86
2022/12/21 00:21:09;;;;;;;82.90;26.77;;;4.80;99.90;;;;;;6051241;23;20097;-86
2022/12/21 00:23:35;;;;;;;59.55;24.38;;;4.80;99.90;;;;;;6051794;23;20073;-86
2022/12/21 00:26:03;;;;;;;69.55;24.23;;;4.70;99.90;;;;;;6051472;23;20026;-86
2022/12/21 00:28:29;;;;;;;80.88;25.13;;;4.80;99.90;;;;;;6052069;23;20041;-87
2022/12/21 00:31:02;;;;;;;83.40;26.17;;;4.70;99.90;;;;;;6051793;23;20531;-86
2022/12/21 00:33:28;;;;;;;77.88;25.27;;;4.70;99.90;;;;;;6053328;23;20288;-87
2022/12/21 00:35:54;;;;;;;72.95;25.23;;;4.70;99.90;;;;;;6054311;23;20061;-86
2022/12/21 00:38:20;;;;;;;72.72;25.15;;;4.80;99.90;;;;;;6100820;23;20013;-86
2022/12/21 00:40:46;;;;;;;81.65;25.63;;;4.70;99.90;;;;;;6066547;23;20066;-86
2022/12/21 00:43:12;;;;;;;73.35;26.08;;;4.70;99.90;;;;;;6089625;23;20014;-86
2022/12/21 00:45:38;;;;;;;101.07;29.30;;;4.50;99.90;;;;;;6082450;23;20010;-86
2022/12/21 00:48:05;;;;;;;95.00;27.98;;;4.50;99.90;;;;;;6076215;23;20006;-86
2022/12/21 00:50:33;;;;;;;126.90;30.70;;;4.30;99.90;;;;;;6075550;23;20046;-86
2022/12/21 00:52:59;;;;;;;232.55;37.67;;;4.30;99.90;;;;;;6059170;23;20011;-86
2022/12/21 00:55:25;;;;;;;318.65;41.72;;;4.20;99.90;;;;;;6071103;23;20010;-86
2022/12/21 00:57:51;;;;;;;367.38;43.58;;;4.00;99.90;;;;;;6087631;23;20010;-85
2022/12/21 01:00:17;;;;;;;348.67;41.17;;;3.90;99.90;;;;;;6081683;23;20014;-86
2022/12/21 01:02:43;;;;;;;245.48;36.75;;;3.80;99.90;;;;;;6076103;23;20002;-86
2022/12/21 01:05:09;;;;;;;190.82;34.78;;;3.70;99.90;;;;;;6075177;23;20407;-86
2022/12/21 01:07:35;;;;;;;265.02;39.50;;;3.60;99.90;;;;;;6052411;23;20424;-85
2022/12/21 01:10:01;;;;;;;202.43;35.85;;;3.60;99.90;;;;;;6051251;23;20392;-85
2022/12/21 01:12:27;;;;;;;185.55;35.92;;;3.50;99.90;;;;;;6075109;23;20410;-85
2022/12/21 01:14:53;;;;;;;167.52;34.28;;;3.50;99.90;;;;;;6050263;23;20033;-86
2022/12/21 01:17:19;;;;;;;162.32;33.35;;;3.50;99.90;;;;;;6050830;23;20015;-85
2022/12/21 01:19:45;;;;;;;181.07;35.85;;;3.50;99.90;;;;;;6050264;23;20014;-85
2022/12/21 01:22:11;;;;;;;160.05;33.58;;;3.40;99.90;;;;;;6051128;23;20024;-85
2022/12/21 01:24:37;;;;;;;147.68;34.17;;;3.40;99.90;;;;;;6051151;23;20042;-85
2022/12/21 01:27:03;;;;;;;178.43;36.05;;;3.40;99.90;;;;;;6050903;23;20392;-85
2022/12/21 01:29:31;;;;;;;188.57;37.75;;;3.30;99.90;;;;;;6052293;23;20018;-85
2022/12/21 01:31:58;;;;;;;223.25;38.60;;;3.40;99.90;;;;;;6051513;23;20019;-85
2022/12/21 01:34:24;;;;;;;264.67;42.67;;;3.30;99.90;;;;;;6075988;23;20014;-85
2022/12/21 01:36:50;;;;;;;180.65;36.10;;;3.40;99.90;;;;;;6073270;23;20021;-86
2022/12/21 01:39:16;;;;;;;222.43;41.60;;;3.40;99.90;;;;;;6073849;23;19990;-85
2022/12/21 01:41:42;;;;;;;312.13;42.78;;;3.50;99.90;;;;;;6092761;23;20030;-84
2022/12/21 01:44:46;;;;;;;343.58;46.08;;;3.50;99.90;;;;;;6052927;23;20328;-84
2022/12/21 01:47:22;;;;;;;317.45;44.80;;;3.50;99.90;;;;;;6075944;23;20021;-84
2022/12/21 01:49:56;;;;;;;244.43;37.47;;;3.40;99.90;;;;;;6050768;23;20010;-84
2022/12/21 01:52:23;;;;;;;167.93;34.15;;;3.40;99.90;;;;;;6074917;23;20039;-84
2022/12/21 01:54:53;;;;;;;301.20;46.05;;;3.30;99.90;;;;;;6050609;23;20014;-83
2022/12/21 01:57:20;;;;;;;295.35;44.53;;;3.30;99.90;;;;;;6074997;23;20065;-85
2022/12/21 01:59:52;;;;;;;303.67;45.78;;;3.30;99.90;;;;;;6050883;23;20036;-85
2022/12/21 02:02:27;;;;;;;428.15;52.65;;;3.40;99.90;;;;;;6050564;23;20042;-85
2022/12/21 02:04:55;;;;;;;343.27;46.58;;;3.40;99.90;;;;;;6074087;23;20018;-86
2022/12/21 02:07:24;;;;;;;433.63;53.55;;;3.30;99.90;;;;;;6074888;23;20038;-85
2022/12/21 02:09:53;;;;;;;327.00;46.83;;;3.50;99.90;;;;;;6098996;23;20403;-85
2022/12/21 02:12:21;;;;;;;378.25;50.17;;;3.50;99.90;;;;;;6075247;23;20017;-85
2022/12/21 02:14:48;;;;;;;476.98;56.38;;;3.50;99.90;;;;;;6053096;23;20372;-85
2022/12/21 02:17:15;;;;;;;561.03;61.75;;;3.50;99.90;;;;;;6076379;23;20022;-85
2022/12/21 02:20:02;;;;;;;300.95;47.13;;;3.60;99.90;;;;;;6051885;23;20386;-85
2022/12/21 02:22:59;;;;;;;457.40;56.83;;;3.60;99.90;;;;;;6052618;23;20380;-85
2022/12/21 02:26:02;;;;;;;444.98;53.33;;;3.60;99.90;;;;;;6052492;23;20014;-85
2022/12/21 02:28:52;;;;;;;439.58;52.58;;;3.70;99.90;;;;;;6052363;23;20086;-84
2022/12/21 02:31:39;;;;;;;399.17;51.53;;;3.70;99.90;;;;;;6071005;23;20011;-84
2022/12/21 02:34:44;;;;;;;277.98;44.50;;;3.70;99.90;;;;;;6075341;23;20012;-85
2022/12/21 02:37:24;;;;;;;383.00;51.78;;;3.60;99.90;;;;;;6022192;23;20388;-84
2022/12/21 02:40:22;;;;;;;229.38;41.80;;;3.50;99.90;;;;;;6052409;23;20010;-84
2022/12/21 02:46:22;;;;;;;248.82;43.85;;;3.40;99.90;;;;;;6052243;23;20018;-85
2022/12/21 02:49:16;;;;;;;440.05;55.42;;;3.40;99.90;;;;;;6075558;23;20014;-85
2022/12/21 02:51:51;;;;;;;301.50;44.47;;;3.50;99.90;;;;;;6052753;23;20018;-85
2022/12/21 02:54:17;;;;;;;307.88;38.78;;;3.50;99.90;;;;;;6076775;23;20006;-86
2022/12/21 02:56:45;;;;;;;394.42;51.15;;;3.50;99.90;;;;;;6052877;23;20253;-86
2022/12/21 02:59:15;;;;;;;396.35;51.90;;;3.50;99.90;;;;;;6075888;23;20011;-86
2022/12/21 03:02:25;;;;;;;464.63;57.58;;;3.60;99.90;;;;;;6052726;23;20057;-85
2022/12/21 03:05:50;;;;;;;504.67;54.80;;;3.60;99.90;;;;;;6051958;23;20011;-86
2022/12/21 03:08:45;;;;;;;532.40;58.08;;;3.60;99.90;;;;;;6057391;23;20403;-85
2022/12/21 03:11:12;;;;;;;426.08;50.33;;;3.60;99.90;;;;;;6027032;23;20018;-85
2022/12/21 03:13:59;;;;;;;380.63;51.75;;;3.50;99.90;;;;;;6052184;23;20276;-85
2022/12/21 03:16:49;;;;;;;301.02;46.05;;;3.50;99.90;;;;;;6052132;23;20010;-85
2022/12/21 03:19:50;;;;;;;390.02;53.70;;;3.50;99.90;;;;;;6051302;23;20007;-85
2022/12/21 03:22:41;;;;;;;410.17;52.35;;;3.50;99.90;;;;;;6076023;23;20021;-86
2022/12/21 03:25:15;;;;;;;428.17;54.78;;;3.50;99.90;;;;;;6075690;23;20034;-85
2022/12/21 03:27:46;;;;;;;490.65;60.78;;;3.50;99.90;;;;;;6052551;23;20014;-85
2022/12/21 03:30:16;;;;;;;418.30;52.38;;;3.50;99.90;;;;;;6076246;23;20006;-86
2022/12/21 03:32:48;;;;;;;618.30;65.75;;;3.40;99.90;;;;;;6075950;23;20006;-86
2022/12/21 03:35:29;;;;;;;576.80;62.17;;;3.40;99.90;;;;;;6051836;23;20029;-85
2022/12/21 03:38:00;;;;;;;617.70;63.55;;;3.30;99.90;;;;;;6052092;23;20062;-86
2022/12/21 03:40:29;;;;;;;405.83;51.55;;;3.30;99.90;;;;;;6052005;23;20065;-85
2022/12/21 03:43:03;;;;;;;585.30;60.78;;;3.20;99.90;;;;;;6051923;23;20013;-86
2022/12/21 03:45:45;;;;;;;462.30;51.72;;;3.20;99.90;;;;;;6076225;23;20003;-85
2022/12/21 03:48:50;;;;;;;459.00;51.17;;;3.10;99.90;;;;;;6075157;23;20006;-85
2022/12/21 03:51:24;;;;;;;454.77;49.38;;;3.20;99.90;;;;;;6022713;23;20072;-86
2022/12/21 03:54:02;;;;;;;476.42;50.45;;;3.10;99.90;;;;;;6076145;23;20003;-85
2022/12/21 03:56:36;;;;;;;322.55;43.35;;;3.10;99.90;;;;;;6052128;23;20045;-86
2022/12/21 03:59:08;;;;;;;359.77;44.08;;;3.10;99.90;;;;;;6076439;23;20033;-86
2022/12/21 04:02:16;;;;;;;434.10;48.58;;;3.10;99.90;;;;;;6101336;23;20018;-86
2022/12/21 04:05:11;;;;;;;423.75;48.55;;;3.10;99.90;;;;;;6102770;23;20089;-85
2022/12/21 04:07:39;;;;;;;338.88;41.60;;;3.00;99.90;;;;;;6056467;23;20033;-86
2022/12/21 04:10:14;;;;;;;438.65;47.53;;;3.00;99.90;;;;;;6078319;23;20014;-84
2022/12/21 04:12:41;;;;;;;395.63;46.43;;;3.00;99.90;;;;;;6063493;23;20007;-85
2022/12/21 04:15:23;;;;;;;299.35;39.20;;;3.00;99.90;;;;;;6073158;23;19995;-85
2022/12/21 04:17:51;;;;;;;287.05;38.17;;;3.00;99.90;;;;;;6069330;23;20054;-86
2022/12/21 04:20:22;;;;;;;249.75;37.35;;;3.00;99.90;;;;;;6053962;23;20022;-84
2022/12/21 04:28:30;;;;;;;315.75;37.88;;;3.00;99.90;;;;;;6078985;23;20018;-85
2022/12/21 04:30:58;;;;;;;294.23;36.58;;;3.00;99.90;;;;;;6077781;23;20394;-85
2022/12/21 04:33:29;;;;;;;409.05;41.47;;;3.10;99.90;;;;;;6100538;23;20010;-84
2022/12/21 04:38:44;;;;;;;285.25;33.75;;;3.20;99.90;;;;;;6053225;23;20069;-85
2022/12/21 04:41:11;;;;;;;307.95;36.17;;;3.10;99.90;;;;;;6101039;23;20081;-84
2022/12/21 04:43:44;;;;;;;231.88;31.70;;;3.20;99.90;;;;;;6051582;23;20015;-84
2022/12/21 04:46:15;;;;;;;260.45;33.85;;;3.20;99.90;;;;;;6075621;23;20045;-84
2022/12/21 04:48:46;;;;;;;213.38;31.83;;;3.30;99.90;;;;;;6051510;23;20010;-85
2022/12/21 04:51:18;;;;;;;347.67;38.95;;;3.30;99.90;;;;;;6050552;23;20029;-85
2022/12/21 04:53:48;;;;;;;338.05;38.17;;;3.30;99.90;;;;;;6052059;23;20006;-85
2022/12/21 04:56:16;;;;;;;322.40;38.90;;;3.40;99.90;;;;;;6075630;23;20007;-86
2022/12/21 04:58:46;;;;;;;360.98;40.63;;;3.30;99.90;;;;;;6051640;23;20161;-86
2022/12/21 05:01:18;;;;;;;252.35;34.05;;;3.30;99.90;;;;;;6051690;23;20014;-86
2022/12/21 05:03:47;;;;;;;292.85;36.60;;;3.40;99.90;;;;;;6099053;23;20113;-86
2022/12/21 05:06:47;;;;;;;285.98;38.03;;;3.40;99.90;;;;;;5985982;23;20471;-86
2022/12/21 05:09:53;;;;;;;281.58;36.92;;;3.30;99.90;;;;;;6052719;23;20037;-86
2022/12/21 05:13:10;;;;;;;299.95;37.85;;;3.30;99.90;;;;;;6030383;23;20018;-86
2022/12/21 05:15:50;;;;;;;194.63;32.40;;;3.20;99.90;;;;;;6051912;23;20014;-87
2022/12/21 05:18:16;;;;;;;199.88;32.67;;;3.30;99.90;;;;;;6050737;23;20041;-86
2022/12/21 05:20:43;;;;;;;204.38;33.53;;;3.30;99.90;;;;;;6051760;23;20067;-86
2022/12/21 05:23:12;;;;;;;171.20;31.45;;;3.20;99.90;;;;;;6051976;23;20014;-86
2022/12/21 05:25:38;;;;;;;172.07;32.38;;;3.30;99.90;;;;;;6051498;23;20007;-86
2022/12/21 05:28:04;;;;;;;133.35;29.90;;;3.30;99.90;;;;;;6051427;23;20023;-86
2022/12/21 05:30:30;;;;;;;155.93;31.27;;;3.30;99.90;;;;;;6051342;23;20015;-85
2022/12/21 05:32:56;;;;;;;138.10;30.77;;;3.30;99.90;;;;;;6050708;23;20011;-85
2022/12/21 05:35:27;;;;;;;135.60;30.73;;;3.50;99.90;;;;;;6051488;23;20042;-85
2022/12/21 05:37:53;;;;;;;136.60;30.55;;;3.50;99.90;;;;;;6075118;23;20126;-84
2022/12/21 05:40:19;;;;;;;143.85;31.40;;;3.50;99.90;;;;;;6075134;23;20350;-86
2022/12/21 05:42:45;;;;;;;159.27;32.22;;;3.60;99.90;;;;;;6050951;23;20076;-85
2022/12/21 05:45:11;;;;;;;152.10;32.33;;;3.50;99.90;;;;;;6074959;23;20006;-86
2022/12/21 05:47:37;;;;;;;162.25;43.40;;;3.50;99.90;;;;;;6050659;23;20459;-85
2022/12/21 05:50:04;;;;;;;176.00;45.97;;;3.50;99.90;;;;;;6075733;23;20090;-84
2022/12/21 05:52:30;;;;;;;184.23;34.75;;;3.50;99.90;;;;;;6028573;23;20066;-84
2022/12/21 05:54:56;;;;;;;172.73;34.35;;;3.50;99.90;;;;;;6052571;23;20376;-85
2022/12/21 05:57:22;;;;;;;130.25;32.00;;;3.40;99.90;;;;;;6052864;23;20041;-85
2022/12/21 05:59:48;;;;;;;135.20;34.45;;;3.40;99.90;;;;;;6052467;23;20108;-85
2022/12/21 06:02:14;;;;;;;134.80;32.78;;;3.40;99.90;;;;;;6076202;23;20014;-85
2022/12/21 06:04:41;;;;;;;180.18;40.65;;;3.50;99.90;;;;;;6051550;23;20440;-85
2022/12/21 06:07:10;;;;;;;205.43;37.85;;;3.60;99.90;;;;;;6100449;23;20101;-85
2022/12/21 06:09:36;;;;;;;210.55;40.08;;;3.60;99.90;;;;;;6052297;23;20018;-85
2022/12/21 06:12:02;;;;;;;206.75;36.75;;;3.60;99.90;;;;;;6073875;23;20396;-85
2022/12/21 06:14:31;;;;;;;199.93;34.20;;;3.60;99.90;;;;;;6073090;23;20010;-86
2022/12/21 06:17:05;;;;;;;229.63;38.95;;;3.60;99.90;;;;;;6048665;23;20014;-84
2022/12/21 06:19:34;;;;;;;197.73;35.13;;;3.60;99.90;;;;;;6048439;23;20010;-85
2022/12/21 06:22:00;;;;;;;191.38;35.25;;;3.60;99.90;;;;;;6073886;23;20014;-85
2022/12/21 06:24:26;;;;;;;187.35;37.72;;;3.60;99.90;;;;;;6048980;23;20022;-85
2022/12/21 06:26:52;;;;;;;225.32;39.35;;;3.50;99.90;;;;;;6073481;23;20022;-86
2022/12/21 06:29:18;;;;;;;204.98;43.25;;;3.50;99.90;;;;;;6073678;23;20021;-86
2022/12/21 06:31:44;;;;;;;257.38;41.40;;;3.50;99.90;;;;;;6048627;23;20025;-86
2022/12/21 06:34:10;;;;;;;290.92;37.10;;;3.40;99.90;;;;;;6072491;23;20086;-86
2022/12/21 06:36:36;;;;;;;244.90;34.35;;;3.50;99.90;;;;;;6049094;23;20018;-86
2022/12/21 06:39:02;;;;;;;388.52;38.15;;;3.40;99.90;;;;;;6049080;23;20451;-86
2022/12/21 06:41:28;;;;;;;348.55;36.72;;;3.40;99.90;;;;;;6073630;23;20010;-86
2022/12/21 06:43:54;;;;;;;300.33;42.00;;;3.40;99.90;;;;;;6072803;23;20011;-86
2022/12/21 06:46:20;;;;;;;328.30;41.42;;;3.40;99.90;;;;;;6049403;23;20021;-86
2022/12/21 06:48:47;;;;;;;416.80;46.83;;;3.40;99.90;;;;;;6072993;23;20010;-86
2022/12/21 06:51:19;;;;;;;403.10;41.22;;;3.40;99.90;;;;;;6074069;23;20022;-85
2022/12/21 06:53:51;;;;;;;419.13;43.05;;;3.40;99.90;;;;;;6069490;23;20034;-86
2022/12/21 06:56:20;;;;;;;379.67;40.67;;;3.40;99.90;;;;;;6095715;23;20005;-87
2022/12/21 06:58:47;;;;;;;309.40;42.22;;;3.50;99.90;;;;;;6067436;23;20010;-86
2022/12/21 07:01:17;;;;;;;400.40;43.83;;;3.40;99.90;;;;;;6078529;23;20377;-86
2022/12/21 07:03:44;;;;;;;356.33;40.58;;;3.40;99.90;;;;;;6078454;23;20009;-87
2022/12/21 07:06:12;;;;;;;368.63;46.30;;;3.50;99.90;;;;;;6064282;23;20014;-85
2022/12/21 07:08:38;;;;;;;288.38;42.15;;;3.50;99.90;;;;;;6058066;23;20018;-86
2022/12/21 07:11:07;;;;;;;342.98;43.83;;;3.50;99.90;;;;;;6053506;23;20023;-86
2022/12/21 07:13:38;;;;;;;324.13;42.10;;;3.50;99.90;;;;;;6054491;23;20042;-88
2022/12/21 07:16:07;;;;;;;286.23;41.38;;;3.50;99.90;;;;;;6056313;23;20010;-88
2022/12/21 07:18:37;;;;;;;324.33;45.40;;;3.60;99.90;;;;;;6053556;23;20018;-88
2022/12/21 07:21:06;;;;;;;316.23;46.08;;;3.70;99.90;;;;;;6054312;23;20041;-88
2022/12/21 07:23:34;;;;;;;299.60;45.88;;;3.70;99.90;;;;;;6093321;23;20018;-89
2022/12/21 07:26:04;;;;;;;294.15;45.33;;;3.70;99.90;;;;;;6072541;23;20021;-87
2022/12/21 07:28:30;;;;;;;362.92;49.80;;;3.80;99.90;;;;;;6074491;23;19995;-89
2022/12/21 07:31:08;;;;;;;377.00;57.22;;;3.80;99.90;;;;;;6113248;23;20069;-88
2022/12/21 07:33:35;;;;;;;364.30;48.53;;;3.80;99.90;;;;;;6053465;23;20101;-87
2022/12/21 07:36:03;;;;;;;454.40;57.60;;;3.90;99.90;;;;;;6076575;23;20034;-88
2022/12/21 07:38:33;;;;;;;387.95;53.50;;;3.90;99.90;;;;;;6052959;23;20289;-88
2022/12/21 07:41:01;;;;;;;422.48;54.05;;;3.90;99.90;;;;;;6053256;23;20011;-88
2022/12/21 07:43:27;;;;;;;384.60;52.97;;;3.90;99.90;;;;;;6052115;23;20042;-87
2022/12/21 07:46:06;;;;;;;323.30;48.55;;;3.90;99.90;;;;;;6052266;23;20319;-87
2022/12/21 07:48:34;;;;;;;267.85;45.55;;;4.00;99.90;;;;;;6051513;23;20112;-87
2022/12/21 07:51:01;;;;;;;336.90;50.75;;;4.00;99.90;;;;;;6051532;23;20406;-87
2022/12/21 07:53:30;;;;;;;321.63;48.97;;;4.00;99.90;;;;;;6076435;23;20280;-88
2022/12/21 07:56:03;;;;;;;280.00;45.85;;;4.10;99.90;;;;;;6083169;23;20010;-88
2022/12/21 07:58:34;;;;;;;275.38;50.15;;;4.10;99.90;;;;;;6054718;23;20011;-89
2022/12/21 08:01:10;;;;;;;266.92;49.47;;;4.10;99.90;;;;;;6077474;23;20010;-88
2022/12/21 08:04:07;;;;;;;180.82;42.40;;;4.10;99.90;;;;;;6058361;23;20041;-89
2022/12/21 08:06:47;;;;;;;159.48;41.60;;;4.10;99.90;;;;;;6077351;23;20014;-89
2022/12/21 08:09:13;;;;;;;145.20;42.10;;;4.10;99.90;;;;;;6052880;23;20108;-90
2022/12/21 08:11:40;;;;;;;145.05;43.55;;;4.10;99.90;;;;;;6052447;23;20021;-90
2022/12/21 08:14:09;;;;;;;144.05;42.28;;;4.10;99.90;;;;;;6077112;23;20010;-89
2022/12/21 08:16:37;;;;;;;170.95;44.45;;;4.10;99.90;;;;;;6051851;23;20399;-89
2022/12/21 08:19:05;;;;;;;188.93;47.85;;;4.10;99.90;;;;;;6051142;23;20038;-90
2022/12/21 08:21:34;;;;;;;223.38;51.13;;;4.20;99.90;;;;;;6051788;23;20015;-90
2022/12/21 08:24:03;;;;;;;247.30;56.95;;;4.30;99.90;;;;;;6029485;23;20042;-89
2022/12/21 08:26:30;;;;;;;275.05;58.58;;;4.40;99.90;;;;;;6052685;23;20019;-90
2022/12/21 08:28:57;;;;;;;332.10;71.38;;;4.40;99.90;;;;;;6052162;23;20049;-88
2022/12/21 08:31:23;;;;;;;371.23;89.75;;;4.50;99.90;;;;;;6075580;23;20097;-87
2022/12/21 08:33:49;;;;;;;348.65;68.28;;;4.60;99.90;;;;;;6050656;23;20086;-88
2022/12/21 08:36:22;;;;;;;330.98;66.00;;;4.60;99.90;;;;;;6051233;23;20341;-88
2022/12/21 08:38:50;;;;;;;273.40;61.83;;;4.60;99.90;;;;;;6047344;23;20014;-88
2022/12/21 08:41:17;;;;;;;253.48;58.05;;;4.60;99.90;;;;;;6051575;23;20033;-87
2022/12/21 08:43:43;;;;;;;296.60;63.67;;;4.70;99.90;;;;;;6051382;23;20015;-86
2022/12/21 08:46:11;;;;;;;277.98;62.72;;;4.70;99.90;;;;;;6051275;23;20006;-87
2022/12/21 08:48:40;;;;;;;236.93;58.58;;;4.80;99.90;;;;;;6050223;23;20010;-87
2022/12/21 08:51:07;;;;;;;257.42;58.03;;;4.90;99.90;;;;;;6074305;23;20417;-87
2022/12/21 08:53:35;;;;;;;269.90;60.35;;;5.00;99.90;;;;;;6027995;23;20006;-87
2022/12/21 08:56:04;;;;;;;273.38;60.67;;;5.10;99.90;;;;;;6051113;23;20002;-86
2022/12/21 08:58:31;;;;;;;301.60;66.30;;;5.20;99.90;;;;;;6052326;23;20011;-88
2022/12/21 09:00:57;;;;;;;277.38;67.35;;;5.20;99.90;;;;;;6051619;23;20030;-87
2022/12/21 09:03:26;;;;;;;241.27;58.20;;;5.20;99.90;;;;;;6051160;23;20014;-87
2022/12/21 09:05:58;;;;;;;226.25;56.50;;;5.20;99.90;;;;;;6051644;23;20093;-87
2022/12/21 09:08:28;;;;;;;186.20;51.53;;;5.20;99.90;;;;;;6077158;23;20211;-88
2022/12/21 09:11:02;;;;;;;182.20;50.17;;;5.20;99.90;;;;;;6052674;23;20018;-86
2022/12/21 09:13:29;;;;;;;207.95;51.55;;;5.20;99.90;;;;;;6077237;23;20002;-87
2022/12/21 09:15:58;;;;;;;155.55;47.30;;;5.20;99.90;;;;;;6062833;23;20010;-87
2022/12/21 09:18:27;;;;;;;148.65;44.20;;;5.20;99.90;;;;;;6072300;23;20022;-88
2022/12/21 09:21:20;;;;;;;189.65;50.17;;;5.20;99.90;;;;;;6073306;23;20011;-87
2022/12/21 09:23:52;;;;;;;205.32;52.28;;;5.20;99.90;;;;;;6045745;23;20049;-88
2022/12/21 09:26:18;;;;;;;234.45;54.33;;;5.20;99.90;;;;;;6071073;23;20089;-86
2022/12/21 09:28:44;;;;;;;248.65;56.28;;;5.30;99.90;;;;;;6083655;23;20002;-87
2022/12/21 09:31:18;;;;;;;266.73;56.83;;;5.50;99.90;;;;;;6056635;23;20022;-87
2022/12/21 09:33:50;;;;;;;319.90;60.78;;;5.60;99.90;;;;;;6064640;23;20038;-87
2022/12/21 09:36:16;;;;;;;318.33;59.92;;;5.60;99.90;;;;;;6069746;23;20010;-88
2022/12/21 09:38:45;;;;;;;226.07;54.70;;;5.70;99.90;;;;;;6071789;23;20030;-87
2022/12/21 09:41:32;;;;;;;210.82;56.13;;;5.80;99.90;;;;;;6033848;23;20010;-88
2022/12/21 09:44:32;;;;;;;214.02;55.35;;;6.10;99.90;;;;;;6077533;23;20380;-89
2022/12/21 09:47:03;;;;;;;235.07;60.83;;;6.60;99.90;;;;;;6053421;23;20014;-88
2022/12/21 09:49:44;;;;;;;123.55;46.25;;;7.70;99.90;;;;;;6052831;23;20022;-88
2022/12/21 09:52:38;;;;;;;162.45;52.15;;;8.50;99.90;;;;;;6077238;23;20679;-87
2022/12/21 09:55:33;;;;;;;109.57;41.38;;;9.30;99.90;;;;;;6053604;23;20399;-89
2022/12/21 09:58:04;;;;;;;67.25;29.60;;;9.10;99.90;;;;;;6052207;23;20013;-88
2022/12/21 10:00:35;;;;;;;59.65;24.85;;;8.50;99.90;;;;;;6052866;23;20010;-88
2022/12/21 10:03:07;;;;;;;66.93;27.85;;;7.70;99.90;;;;;;6051413;23;20018;-88
2022/12/21 10:05:59;;;;;;;78.93;28.48;;;7.30;99.90;;;;;;6052358;23;20014;-89
2022/12/21 10:08:28;;;;;;;76.20;26.65;;;6.90;99.90;;;;;;6052776;23;20065;-88
2022/12/21 10:11:35;;;;;;;68.22;25.95;;;6.60;99.90;;;;;;6076381;23;20017;-88
2022/12/21 10:14:15;;;;;;;99.95;29.33;;;6.50;99.90;;;;;;6029350;23;20097;-88
2022/12/21 10:17:07;;;;;;;104.50;28.35;;;6.40;99.90;;;;;;6053777;23;20013;-88
2022/12/21 10:19:46;;;;;;;140.93;33.80;;;6.30;99.90;;;;;;6052389;23;20146;-87
2022/12/21 10:22:32;;;;;;;135.80;30.52;;;6.20;99.90;;;;;;6052668;23;20018;-87
2022/12/21 10:25:01;;;;;;;135.85;31.00;;;6.20;99.90;;;;;;6052782;23;20093;-87
2022/12/21 10:27:53;;;;;;;127.22;32.05;;;6.20;99.90;;;;;;6029620;23;20010;-88
2022/12/21 10:30:19;;;;;;;120.22;31.13;;;6.20;99.90;;;;;;6009315;23;20059;-87
2022/12/21 10:32:49;;;;;;;106.68;32.15;;;6.30;99.90;;;;;;6052146;23;20010;-88
2022/12/21 10:35:41;;;;;;;94.45;28.67;;;6.30;99.90;;;;;;6054777;23;20219;-88
2022/12/21 10:38:33;;;;;;;105.80;30.90;;;6.30;99.90;;;;;;6083398;23;20057;-89
2022/12/21 10:41:08;;;;;;;108.53;31.88;;;6.30;99.90;;;;;;6054316;23;20328;-88
2022/12/21 10:44:10;;;;;;;100.45;30.85;;;6.40;99.90;;;;;;6054805;23;20021;-88
2022/12/21 10:46:39;;;;;;;94.60;30.70;;;6.40;99.90;;;;;;6054354;23;20312;-88
2022/12/21 10:49:36;;;;;;;100.53;32.13;;;6.50;99.90;;;;;;6054577;23;20019;-90
2022/12/21 10:52:36;;;;;;;100.65;32.15;;;6.60;99.90;;;;;;6053801;23;20015;-87
2022/12/21 10:55:04;;;;;;;100.75;33.75;;;6.70;99.90;;;;;;6053177;23;20011;-90
2022/12/21 10:57:37;;;;;;;101.32;34.60;;;6.70;99.90;;;;;;6054185;23;20007;-89
2022/12/21 11:00:35;;;;;;;88.28;30.33;;;6.90;99.90;;;;;;6079069;23;20006;-90
2022/12/21 11:03:39;;;;;;;85.82;29.23;;;7.00;99.90;;;;;;6075242;23;20010;-92
2022/12/21 11:06:28;;;;;;;90.65;33.00;;;7.00;99.90;;;;;;6054955;23;20018;-91
2022/12/21 11:09:39;;;;;;;79.07;28.90;;;7.00;99.90;;;;;;6078626;23;20376;-90
2022/12/21 11:12:23;;;;;;;141.05;65.53;;;7.10;99.90;;;;;;6054565;23;20018;-91
2022/12/21 11:14:51;;;;;;;85.38;35.33;;;7.00;99.90;;;;;;6062333;23;20006;-89
2022/12/21 11:17:32;;;;;;;82.28;33.28;;;7.00;99.90;;;;;;6062741;23;20086;-91
2022/12/21 11:20:08;;;;;;;74.90;30.27;;;7.50;99.90;;;;;;6059349;23;20053;-90
2022/12/21 11:22:39;;;;;;;51.60;25.83;;;8.00;99.90;;;;;;6054108;23;20010;-90
2022/12/21 11:25:15;;;;;;;48.58;23.75;;;8.40;99.90;;;;;;6053154;23;20018;-91
2022/12/21 11:27:46;;;;;;;50.78;23.27;;;8.80;99.90;;;;;;6052377;23;20037;-89
2022/12/21 11:30:22;;;;;;;37.25;21.15;;;9.10;99.90;;;;;;6077433;23;20010;-89
2022/12/21 11:32:50;;;;;;;44.20;19.15;;;9.40;99.90;;;;;;6053372;23;20014;-88
2022/12/21 11:35:22;;;;;;;38.72;19.17;;;9.60;99.90;;;;;;6060431;23;20067;-90
2022/12/21 11:38:14;;;;;;;37.25;18.45;;;9.80;99.90;;;;;;6075926;23;19994;-89
2022/12/21 11:41:14;;;;;;;32.85;18.13;;;10.10;99.90;;;;;;6069511;23;20109;-90
2022/12/21 11:44:44;;;;;;;36.75;17.58;;;10.90;99.90;;;;;;6027263;23;20018;-88
2022/12/21 11:47:52;;;;;;;27.77;15.48;;;11.20;99.90;;;;;;5968483;23;20102;-89
2022/12/21 11:50:37;;;;;;;34.25;17.65;;;11.40;99.90;;;;;;6072667;23;20010;-90
2022/12/21 11:53:35;;;;;;;28.52;16.02;;;11.50;99.90;;;;;;6023313;23;20011;-89
2022/12/21 11:56:28;;;;;;;27.17;15.35;;;11.80;99.90;;;;;;5994098;23;20400;-87
2022/12/21 11:59:09;;;;;;;25.48;13.73;;;12.00;99.90;;;;;;6023265;23;20018;-89
2022/12/21 12:02:02;;;;;;;25.65;13.95;;;12.40;99.90;;;;;;6024150;23;20019;-89
2022/12/21 12:04:47;;;;;;;26.30;12.68;;;12.70;99.90;;;;;;6023996;23;20057;-88
2022/12/21 12:07:31;;;;;;;26.50;12.77;;;12.80;99.90;;;;;;6024151;23;20026;-89
2022/12/21 12:10:14;;;;;;;25.63;12.57;;;12.60;99.90;;;;;;6022950;23;20030;-88
2022/12/21 12:12:46;;;;;;;24.98;12.80;;;12.70;99.90;;;;;;6021608;23;20006;-89
2022/12/21 12:15:28;;;;;;;24.70;12.95;;;12.70;99.90;;;;;;5998994;23;20285;-91
2022/12/21 12:18:19;;;;;;;25.38;13.77;;;12.30;99.90;;;;;;6023442;23;20015;-89
2022/12/21 12:21:09;;;;;;;27.40;15.52;;;11.80;99.90;;;;;;6047748;23;20022;-90
2022/12/21 12:24:00;;;;;;;34.63;18.52;;;10.90;99.90;;;;;;6021670;23;20011;-90
2022/12/21 12:27:04;;;;;;;36.35;17.95;;;10.10;99.90;;;;;;6021500;23;20010;-89
2022/12/21 12:29:57;;;;;;;36.97;18.90;;;9.50;99.90;;;;;;6024220;23;20107;-91
2022/12/21 12:32:51;;;;;;;42.13;22.65;;;9.20;99.90;;;;;;6047635;23;20393;-91
2022/12/21 12:35:38;;;;;;;41.45;24.35;;;8.80;99.90;;;;;;6025055;23;20010;-90
2022/12/21 12:38:22;;;;;;;45.67;26.67;;;8.50;99.90;;;;;;6023459;23;20038;-89
2022/12/21 12:40:56;;;;;;;48.38;27.02;;;8.30;99.90;;;;;;6023722;23;20099;-90
2022/12/21 12:43:48;;;;;;;47.00;29.05;;;8.10;99.90;;;;;;6023047;23;20075;-87
2022/12/21 12:46:53;;;;;;;52.65;30.67;;;7.90;99.90;;;;;;6022005;23;20014;-87
2022/12/21 12:49:22;;;;;;;53.78;29.15;;;7.80;99.90;;;;;;6044896;23;20042;-87
2022/12/21 12:52:21;;;;;;;58.22;32.38;;;7.70;99.90;;;;;;6064236;23;20011;-88
2022/12/21 12:54:53;;;;;;;51.15;29.45;;;7.70;99.90;;;;;;6075548;23;20013;-88
2022/12/21 12:57:37;;;;;;;55.35;29.42;;;7.80;99.90;;;;;;6075039;23;20014;-88
2022/12/21 13:00:11;;;;;;;45.75;28.05;;;7.80;99.90;;;;;;6051657;23;20014;-88
2022/12/21 13:02:52;;;;;;;50.88;29.05;;;7.70;99.90;;;;;;6026842;23;20046;-88
2022/12/21 13:05:24;;;;;;;44.05;26.45;;;7.70;99.90;;;;;;6050077;23;20038;-88
2022/12/21 13:07:57;;;;;;;46.33;25.95;;;7.70;99.90;;;;;;6051146;23;20002;-88
2022/12/21 13:10:53;;;;;;;47.50;25.08;;;7.80;99.90;;;;;;6073170;23;20010;-88
2022/12/21 13:13:39;;;;;;;43.35;26.83;;;7.80;99.90;;;;;;6022823;23;20084;-88
2022/12/21 13:16:10;;;;;;;46.83;27.25;;;7.80;99.90;;;;;;6050367;23;20017;-89
2022/12/21 13:19:02;;;;;;;45.20;25.73;;;7.80;99.90;;;;;;6049548;23;20015;-89
2022/12/21 13:21:34;;;;;;;45.72;25.05;;;7.80;99.90;;;;;;6069967;23;20018;-90